createdAt,value
2023-05-14T00:02:12.906Z,40.33
2023-05-14T00:04:41.096Z,42.63
2023-05-14T00:07:08.067Z,43.63
2023-05-14T00:09:35.513Z,42.80
2023-05-14T00:12:02.550Z,42.30
2023-05-14T00:14:29.491Z,43.17
2023-05-14T00:16:56.468Z,44.07
2023-05-14T00:19:23.725Z,42.70
2023-05-14T00:21:50.734Z,41.83
2023-05-14T00:24:17.655Z,44.57
2023-05-14T00:26:44.801Z,44.73
2023-05-14T00:29:11.846Z,45.30
2023-05-14T00:31:38.813Z,46.17
2023-05-14T00:34:05.866Z,44.07
2023-05-14T00:36:32.812Z,43.40
2023-05-14T00:38:59.696Z,44.53
2023-05-14T00:41:26.609Z,43.60
2023-05-14T00:43:53.784Z,43.57
2023-05-14T00:46:20.792Z,42.60
2023-05-14T00:48:47.853Z,44.80
2023-05-14T00:51:14.900Z,43.37
2023-05-14T00:53:42.208Z,43.63
2023-05-14T00:56:10.990Z,42.97
2023-05-14T00:58:38.128Z,45.67
2023-05-14T01:01:05.282Z,43.13
2023-05-14T01:03:32.806Z,42.87
2023-05-14T01:06:32.548Z,42.17
2023-05-14T01:09:19.079Z,43.13
2023-05-14T01:12:02.745Z,42.97
2023-05-14T01:14:52.282Z,41.57
2023-05-14T01:17:21.671Z,41.90
2023-05-14T01:19:49.008Z,42.53
2023-05-14T01:22:16.420Z,44.13
2023-05-14T01:24:43.326Z,43.17
2023-05-14T01:27:26.635Z,43.97
2023-05-14T01:30:13.961Z,42.30
2023-05-14T01:32:41.917Z,41.77
2023-05-14T01:35:10.685Z,41.90
2023-05-14T01:37:38.707Z,42.70
2023-05-14T01:40:07.076Z,42.93
2023-05-14T01:42:34.665Z,42.53
2023-05-14T01:45:02.467Z,43.70
2023-05-14T01:47:29.455Z,44.17
2023-05-14T01:49:56.433Z,43.47
2023-05-14T01:52:23.519Z,44.23
2023-05-14T01:54:50.560Z,45.43
2023-05-14T01:57:17.557Z,46.87
2023-05-14T01:59:44.450Z,44.40
2023-05-14T02:02:11.485Z,44.27
2023-05-14T02:04:38.371Z,45.77
2023-05-14T02:07:05.489Z,47.57
2023-05-14T02:09:32.571Z,46.07
2023-05-14T02:11:59.505Z,45.93
2023-05-14T02:14:26.436Z,44.87
2023-05-14T02:16:53.358Z,45.70
2023-05-14T02:19:20.402Z,42.53
2023-05-14T02:21:48.222Z,41.33
2023-05-14T02:24:15.225Z,43.43
2023-05-14T02:26:42.384Z,43.00
2023-05-14T02:29:09.338Z,42.07
2023-05-14T02:31:36.446Z,42.23
2023-05-14T02:34:04.402Z,43.07
2023-05-14T02:36:31.840Z,42.80
2023-05-14T02:39:01.181Z,42.63
2023-05-14T02:41:28.324Z,44.80
2023-05-14T02:43:55.210Z,45.33
2023-05-14T02:46:22.419Z,44.33
2023-05-14T02:48:49.365Z,44.70
2023-05-14T02:51:16.759Z,44.93
2023-05-14T02:53:43.671Z,42.83
2023-05-14T02:56:10.617Z,42.43
2023-05-14T02:58:37.512Z,44.27
2023-05-14T03:01:04.756Z,43.60
2023-05-14T03:03:32.064Z,44.00
2023-05-14T03:05:59.621Z,43.13
2023-05-14T03:08:26.545Z,44.27
2023-05-14T03:10:53.486Z,43.27
2023-05-14T03:13:20.798Z,42.97
2023-05-14T03:15:48.010Z,43.13
2023-05-14T03:18:15.243Z,43.03
2023-05-14T03:20:42.436Z,40.57
2023-05-14T03:23:09.410Z,41.90
2023-05-14T03:25:36.442Z,42.03
2023-05-14T03:28:04.105Z,42.43
2023-05-14T03:30:31.106Z,42.03
2023-05-14T03:32:58.124Z,44.03
2023-05-14T03:35:25.123Z,43.03
2023-05-14T03:37:53.094Z,42.70
2023-05-14T03:40:21.400Z,43.57
2023-05-14T03:42:48.556Z,41.27
2023-05-14T03:45:15.492Z,42.90
2023-05-14T03:47:42.478Z,41.57
2023-05-14T03:50:09.656Z,42.60
2023-05-14T03:52:36.775Z,41.33
2023-05-14T03:55:04.332Z,43.17
2023-05-14T03:57:31.310Z,43.00
2023-05-14T03:59:58.401Z,41.00
2023-05-14T04:02:25.532Z,45.87
2023-05-14T04:04:52.607Z,46.07
2023-05-14T04:07:19.620Z,45.67
2023-05-14T04:09:46.505Z,45.87
2023-05-14T04:12:13.549Z,45.70
2023-05-14T04:14:40.583Z,44.60
2023-05-14T04:17:07.508Z,47.47
2023-05-14T04:19:34.381Z,44.93
2023-05-14T04:22:01.352Z,44.37
2023-05-14T04:24:28.241Z,46.17
2023-05-14T04:26:55.193Z,45.93
2023-05-14T04:29:22.212Z,46.47
2023-05-14T04:31:49.922Z,48.03
2023-05-14T04:34:16.894Z,47.57
2023-05-14T04:36:43.820Z,45.90
2023-05-14T04:39:12.924Z,46.93
2023-05-14T04:41:39.903Z,47.93
2023-05-14T04:44:07.196Z,48.43
2023-05-14T04:46:34.196Z,48.70
2023-05-14T04:49:01.239Z,49.03
2023-05-14T04:51:28.632Z,47.47
2023-05-14T04:53:55.524Z,47.07
2023-05-14T04:56:22.405Z,48.77
2023-05-14T04:58:49.294Z,46.90
2023-05-14T05:01:16.272Z,49.07
2023-05-14T05:03:43.278Z,46.10
2023-05-14T05:06:10.346Z,45.97
2023-05-14T05:08:37.666Z,44.50
2023-05-14T05:11:05.211Z,45.03
2023-05-14T05:13:32.346Z,44.17
2023-05-14T05:15:59.483Z,44.43
2023-05-14T05:18:26.562Z,43.70
2023-05-14T05:20:53.610Z,43.87
2023-05-14T05:23:20.532Z,43.50
2023-05-14T05:25:47.442Z,43.43
2023-05-14T05:28:14.522Z,41.90
2023-05-14T05:30:41.459Z,41.23
2023-05-14T05:33:08.495Z,39.70
2023-05-14T05:35:35.571Z,39.07
2023-05-14T05:38:02.456Z,37.83
2023-05-14T05:40:29.500Z,38.70
2023-05-14T05:42:56.413Z,37.73
2023-05-14T05:45:23.430Z,37.73
2023-05-14T05:47:50.453Z,37.60
2023-05-14T05:50:18.965Z,35.80
2023-05-14T05:52:46.980Z,36.70
2023-05-14T05:55:13.905Z,34.27
2023-05-14T05:57:40.863Z,36.30
2023-05-14T06:00:14.437Z,35.13
2023-05-14T06:02:41.835Z,36.63
2023-05-14T06:05:10.939Z,37.47
2023-05-14T06:07:38.413Z,37.00
2023-05-14T06:10:06.500Z,37.80
2023-05-14T06:12:33.487Z,38.33
2023-05-14T06:15:00.478Z,36.97
2023-05-14T06:17:27.741Z,36.57
2023-05-14T06:19:54.673Z,37.43
2023-05-14T06:22:21.591Z,36.10
2023-05-14T06:24:49.116Z,35.60
2023-05-14T06:27:16.039Z,36.70
2023-05-14T06:29:42.936Z,37.93
2023-05-14T06:32:10.472Z,36.83
2023-05-14T06:34:37.536Z,37.30
2023-05-14T06:37:04.749Z,37.67
2023-05-14T06:39:31.764Z,35.63
2023-05-14T06:41:58.661Z,37.10
2023-05-14T06:44:25.632Z,35.83
2023-05-14T06:46:52.568Z,34.83
2023-05-14T06:49:19.585Z,35.50
2023-05-14T06:51:46.544Z,35.93
2023-05-14T06:54:13.589Z,35.20
2023-05-14T06:56:40.567Z,34.60
2023-05-14T06:59:07.451Z,34.90
2023-05-14T07:01:34.397Z,34.93
2023-05-14T07:04:02.833Z,34.77
2023-05-14T07:06:29.772Z,34.90
2023-05-14T07:08:56.694Z,33.20
2023-05-14T07:11:23.607Z,33.23
2023-05-14T07:13:50.703Z,32.73
2023-05-14T07:16:17.692Z,32.17
2023-05-14T07:18:45.497Z,32.97
2023-05-14T07:21:12.692Z,31.83
2023-05-14T07:23:39.620Z,31.70
2023-05-14T07:26:08.521Z,31.30
2023-05-14T07:28:35.768Z,32.47
2023-05-14T07:31:05.095Z,32.30
2023-05-14T07:33:32.127Z,32.43
2023-05-14T07:35:59.010Z,32.10
2023-05-14T07:38:25.997Z,32.77
2023-05-14T07:40:52.933Z,31.63
2023-05-14T07:43:19.827Z,32.33
2023-05-14T07:45:46.791Z,31.93
2023-05-14T07:48:13.850Z,31.07
2023-05-14T07:50:40.841Z,31.37
2023-05-14T07:53:08.052Z,30.17
2023-05-14T07:55:34.995Z,30.93
2023-05-14T07:58:01.875Z,32.10
2023-05-14T08:00:29.013Z,32.23
2023-05-14T08:02:56.267Z,31.23
2023-05-14T08:05:23.404Z,30.75
2023-05-14T08:07:50.311Z,31.33
2023-05-14T08:10:17.197Z,31.67
2023-05-14T08:12:44.191Z,31.23
2023-05-14T08:15:11.433Z,31.50
2023-05-14T08:17:38.417Z,31.20
2023-05-14T08:20:06.774Z,32.07
2023-05-14T08:22:33.760Z,31.23
2023-05-14T08:25:02.868Z,29.70
2023-05-14T08:27:29.781Z,31.05
2023-05-14T08:29:56.996Z,30.13
2023-05-14T08:32:24.374Z,30.80
2023-05-14T08:34:51.771Z,30.88
2023-05-14T08:37:18.935Z,29.92
2023-05-14T08:39:45.938Z,29.40
2023-05-14T08:42:13.873Z,28.10
2023-05-14T08:44:52.413Z,28.42
2023-05-14T08:47:22.409Z,28.58
2023-05-14T08:50:04.814Z,29.30
2023-05-14T08:52:32.329Z,27.83
2023-05-14T08:55:06.443Z,27.83
2023-05-14T08:57:34.498Z,26.93
2023-05-14T09:00:13.154Z,25.42
2023-05-14T09:02:41.794Z,25.88
2023-05-14T09:05:09.453Z,24.63
2023-05-14T09:07:36.696Z,24.67
2023-05-14T09:10:04.721Z,24.15
2023-05-14T09:12:31.683Z,23.63
2023-05-14T09:14:58.641Z,22.52
2023-05-14T09:17:27.885Z,22.35
2023-05-14T09:19:55.047Z,22.55
2023-05-14T09:22:22.475Z,23.58
2023-05-14T09:25:12.496Z,22.92
2023-05-14T09:27:39.671Z,22.63
2023-05-14T09:30:12.397Z,22.92
2023-05-14T09:32:44.182Z,20.42
2023-05-14T09:35:24.318Z,20.58
2023-05-14T09:37:54.432Z,18.85
2023-05-14T09:40:24.120Z,17.73
2023-05-14T09:42:51.621Z,20.38
2023-05-14T09:45:18.927Z,20.60
2023-05-14T09:47:46.265Z,19.23
2023-05-14T09:50:13.343Z,19.75
2023-05-14T09:52:40.506Z,18.83
2023-05-14T09:55:08.314Z,20.45
2023-05-14T09:57:35.446Z,19.05
2023-05-14T10:00:02.822Z,20.25
2023-05-14T10:02:41.373Z,19.38
2023-05-14T10:05:09.759Z,19.52
2023-05-14T10:07:45.504Z,18.95
2023-05-14T10:10:17.151Z,18.90
2023-05-14T10:12:52.493Z,18.52
2023-05-14T10:15:41.664Z,19.10
2023-05-14T10:18:17.307Z,17.23
2023-05-14T10:20:49.146Z,17.55
2023-05-14T10:23:16.461Z,16.88
2023-05-14T10:25:43.875Z,16.27
2023-05-14T10:28:11.674Z,16.98
2023-05-14T10:30:49.523Z,16.25
2023-05-14T10:33:18.477Z,15.60
2023-05-14T10:36:07.344Z,16.08
2023-05-14T10:38:36.895Z,16.65
2023-05-14T10:41:07.101Z,15.85
2023-05-14T10:43:39.767Z,16.70
2023-05-14T10:46:08.838Z,15.27
2023-05-14T10:48:38.059Z,14.95
2023-05-14T10:51:09.299Z,15.23
2023-05-14T10:53:40.666Z,15.90
2023-05-14T10:56:10.988Z,14.23
2023-05-14T10:58:44.041Z,14.63
2023-05-14T11:01:13.177Z,14.50
2023-05-14T11:03:45.904Z,15.68
2023-05-14T11:06:15.549Z,14.02
2023-05-14T11:08:42.956Z,15.18
2023-05-14T11:11:10.979Z,15.05
2023-05-14T11:13:39.674Z,14.40
2023-05-14T11:18:38.677Z,13.50
2023-05-14T11:21:05.773Z,12.48
2023-05-14T11:23:32.799Z,14.13
2023-05-14T11:25:59.728Z,14.73
2023-05-14T11:28:27.249Z,12.32
2023-05-14T11:30:54.703Z,14.10
2023-05-14T11:33:21.654Z,14.48
2023-05-14T11:35:48.829Z,13.30
2023-05-14T11:38:21.192Z,13.38
2023-05-14T11:40:58.710Z,13.35
2023-05-14T11:43:29.139Z,12.80
2023-05-14T11:45:56.613Z,11.23
2023-05-14T11:48:24.576Z,11.90
2023-05-14T11:50:53.132Z,12.10
2023-05-14T11:53:26.371Z,12.25
2023-05-14T11:55:54.623Z,11.77
2023-05-14T11:58:22.127Z,11.68
2023-05-14T12:00:53.755Z,12.00
2023-05-14T12:03:25.516Z,12.07
2023-05-14T12:06:01.564Z,10.95
2023-05-14T12:08:31.338Z,11.23
2023-05-14T12:11:02.094Z,10.50
2023-05-14T12:13:31.226Z,15.07
2023-05-14T12:16:00.834Z,11.95
2023-05-14T12:18:31.655Z,9.60
2023-05-14T12:21:08.166Z,10.15
2023-05-14T12:23:35.869Z,9.80
2023-05-14T12:26:07.997Z,9.00
2023-05-14T12:28:38.292Z,8.43
2023-05-14T12:31:05.638Z,9.52
2023-05-14T12:33:32.640Z,8.20
2023-05-14T12:36:19.853Z,8.77
2023-05-14T12:38:48.336Z,8.40
2023-05-14T12:41:15.269Z,8.30
2023-05-14T12:43:44.572Z,8.38
2023-05-14T12:46:11.571Z,8.07
2023-05-14T12:48:38.647Z,7.90
2023-05-14T12:51:06.219Z,8.52
2023-05-14T12:53:34.148Z,7.30
2023-05-14T12:56:01.418Z,8.07
2023-05-14T12:58:28.298Z,7.88
2023-05-14T13:00:55.294Z,8.10
2023-05-14T13:03:22.377Z,7.68
2023-05-14T13:05:49.374Z,8.23
2023-05-14T13:08:17.832Z,8.18
2023-05-14T13:10:45.474Z,7.68
2023-05-14T13:13:12.945Z,8.88
2023-05-14T13:15:39.847Z,8.40
2023-05-14T13:18:06.906Z,7.35
2023-05-14T13:20:34.754Z,7.50
2023-05-14T13:23:01.657Z,6.25
2023-05-14T13:25:28.849Z,7.20
2023-05-14T13:27:56.065Z,7.88
2023-05-14T13:30:22.979Z,7.93
2023-05-14T13:32:50.070Z,7.95
2023-05-14T13:35:17.160Z,6.93
2023-05-14T13:37:44.693Z,7.72
2023-05-14T13:40:12.398Z,9.07
2023-05-14T13:42:42.495Z,8.38
2023-05-14T13:45:10.035Z,7.07
2023-05-14T13:47:36.998Z,6.95
2023-05-14T13:50:04.562Z,6.30
2023-05-14T13:52:31.447Z,6.13
2023-05-14T13:54:58.403Z,5.90
2023-05-14T13:57:26.028Z,9.30
2023-05-14T13:59:52.979Z,8.68
2023-05-14T14:02:19.919Z,9.65
2023-05-14T14:04:46.895Z,9.43
2023-05-14T14:07:13.773Z,9.25
2023-05-14T14:09:40.743Z,9.52
2023-05-14T14:12:09.105Z,9.60
2023-05-14T14:14:36.015Z,8.80
2023-05-14T14:17:02.990Z,8.90
2023-05-14T14:19:30.045Z,9.88
2023-05-14T14:21:57.087Z,11.10
2023-05-14T14:24:24.030Z,11.73
2023-05-14T14:26:50.939Z,10.65
2023-05-14T14:29:17.814Z,11.82
2023-05-14T14:31:44.746Z,11.13
2023-05-14T14:34:11.655Z,11.65
2023-05-14T14:36:38.569Z,11.27
2023-05-14T14:39:05.508Z,10.63
2023-05-14T14:41:32.410Z,12.18
2023-05-14T14:43:59.460Z,12.45
2023-05-14T14:46:26.508Z,11.73
2023-05-14T14:48:53.431Z,12.65
2023-05-14T14:51:20.487Z,13.38
2023-05-14T14:53:47.776Z,11.68
2023-05-14T14:56:14.664Z,11.77
2023-05-14T14:58:41.585Z,13.23
2023-05-14T15:01:08.616Z,12.07
2023-05-14T15:03:35.917Z,12.60
2023-05-14T15:06:02.945Z,11.65
2023-05-14T15:08:30.054Z,12.05
2023-05-14T15:10:57.379Z,11.70
2023-05-14T15:13:24.810Z,10.75
2023-05-14T15:15:55.060Z,10.80
2023-05-14T15:18:21.985Z,11.35
2023-05-14T15:20:49.427Z,10.70
2023-05-14T15:23:16.401Z,10.25
2023-05-14T15:25:43.419Z,10.25
2023-05-14T15:28:10.816Z,10.70
2023-05-14T15:30:37.803Z,10.68
2023-05-14T15:33:07.712Z,10.30
2023-05-14T15:35:34.775Z,11.85
2023-05-14T15:38:01.736Z,11.32
2023-05-14T15:40:28.727Z,12.10
2023-05-14T15:42:55.609Z,12.45
2023-05-14T15:45:22.531Z,12.55
2023-05-14T15:47:49.653Z,12.27
2023-05-14T15:50:16.719Z,12.27
2023-05-14T15:52:43.650Z,13.90
2023-05-14T15:55:10.842Z,11.65
2023-05-14T15:57:37.964Z,11.90
2023-05-14T16:00:10.543Z,12.90
2023-05-14T16:02:39.591Z,10.23
2023-05-14T16:05:08.442Z,10.85
2023-05-14T16:07:36.199Z,11.63
2023-05-14T16:10:03.485Z,12.35
2023-05-14T16:12:30.564Z,11.13
2023-05-14T16:14:57.727Z,11.23
2023-05-14T16:17:25.955Z,11.77
2023-05-14T16:19:55.352Z,12.68
2023-05-14T16:22:23.116Z,12.80
2023-05-14T16:24:50.028Z,12.23
2023-05-14T16:27:19.158Z,12.20
2023-05-14T16:29:46.224Z,12.32
2023-05-14T16:32:13.427Z,13.15
2023-05-14T16:34:40.726Z,13.88
2023-05-14T16:37:08.066Z,14.85
2023-05-14T16:39:35.018Z,15.18
2023-05-14T16:42:01.934Z,14.40
2023-05-14T16:44:28.825Z,14.52
2023-05-14T16:46:56.596Z,15.55
2023-05-14T16:49:23.568Z,15.30
2023-05-14T16:51:50.529Z,15.23
2023-05-14T16:54:17.460Z,14.75
2023-05-14T16:56:48.384Z,16.23
2023-05-14T16:59:16.345Z,16.67
2023-05-14T17:01:44.565Z,16.40
2023-05-14T17:04:11.842Z,14.45
2023-05-14T17:06:38.961Z,15.40
2023-05-14T17:09:07.034Z,14.63
2023-05-14T17:11:34.044Z,14.45
2023-05-14T17:14:01.050Z,15.63
2023-05-14T17:16:29.120Z,13.98
2023-05-14T17:18:56.121Z,14.63
2023-05-14T17:21:23.034Z,14.68
2023-05-14T17:23:50.035Z,14.98
2023-05-14T17:26:17.011Z,14.95
2023-05-14T17:28:43.917Z,14.38
2023-05-14T17:31:10.839Z,14.85
2023-05-14T17:33:37.845Z,14.63
2023-05-14T17:36:04.973Z,15.13
2023-05-14T17:38:32.106Z,15.40
2023-05-14T17:40:59.391Z,15.80
2023-05-14T17:43:26.332Z,17.10
2023-05-14T17:45:54.793Z,16.52
2023-05-14T17:48:24.090Z,17.05
2023-05-14T17:50:54.070Z,16.52
2023-05-14T17:53:21.222Z,16.38
2023-05-14T17:55:48.800Z,16.08
2023-05-14T17:58:16.265Z,16.50
2023-05-14T18:00:43.687Z,17.10
2023-05-14T18:03:11.577Z,16.08
2023-05-14T18:05:38.950Z,15.98
2023-05-14T18:08:06.093Z,16.88
2023-05-14T18:10:33.074Z,16.58
2023-05-14T18:12:59.979Z,13.77
2023-05-14T18:15:27.434Z,14.48
2023-05-14T18:17:54.648Z,13.45
2023-05-14T18:20:21.710Z,13.80
2023-05-14T18:22:49.422Z,13.88
2023-05-14T18:25:16.579Z,14.77
2023-05-14T18:27:44.998Z,13.48
2023-05-14T18:30:14.724Z,13.52
2023-05-14T18:32:44.140Z,13.93
2023-05-14T18:35:13.200Z,14.63
2023-05-14T18:37:40.944Z,13.50
2023-05-14T18:40:09.487Z,14.32
2023-05-14T18:42:36.407Z,15.05
2023-05-14T18:45:04.323Z,14.07
2023-05-14T18:47:32.180Z,14.38
2023-05-14T18:50:01.636Z,13.85
2023-05-14T18:52:29.431Z,14.15
2023-05-14T18:54:56.712Z,13.77
2023-05-14T18:57:23.669Z,13.80
2023-05-14T18:59:50.644Z,13.90
2023-05-14T19:02:17.715Z,14.65
2023-05-14T19:04:52.198Z,14.50
2023-05-14T19:07:23.201Z,14.38
2023-05-14T19:09:50.411Z,15.73
2023-05-14T19:12:17.314Z,14.50
2023-05-14T19:14:44.270Z,17.02
2023-05-14T19:17:11.422Z,16.60
2023-05-14T19:19:39.333Z,16.67
2023-05-14T19:22:06.794Z,17.08
2023-05-14T19:24:33.952Z,17.63
2023-05-14T19:27:01.177Z,17.97
2023-05-14T19:29:28.123Z,17.63
2023-05-14T19:31:55.136Z,17.35
2023-05-14T19:34:22.066Z,18.87
2023-05-14T19:36:49.015Z,19.10
2023-05-14T19:39:16.022Z,17.57
2023-05-14T19:41:42.900Z,19.17
2023-05-14T19:44:09.863Z,19.97
2023-05-14T19:46:36.895Z,20.97
2023-05-14T19:49:03.785Z,21.43
2023-05-14T19:51:30.831Z,22.10
2023-05-14T19:53:57.763Z,21.90
2023-05-14T19:56:27.022Z,21.90
2023-05-14T19:58:54.569Z,22.40
2023-05-14T20:01:21.730Z,22.67
2023-05-14T20:03:48.709Z,21.53
2023-05-14T20:06:15.770Z,23.10
2023-05-14T20:08:42.792Z,21.50
2023-05-14T20:11:09.715Z,23.30
2023-05-14T20:13:36.790Z,20.87
2023-05-14T20:16:03.853Z,20.67
2023-05-14T20:18:31.174Z,21.03
2023-05-14T20:20:58.357Z,22.47
2023-05-14T20:23:25.393Z,21.03
2023-05-14T20:25:52.421Z,21.80
2023-05-14T20:28:19.298Z,23.73
2023-05-14T20:30:46.295Z,22.93
2023-05-14T20:33:13.820Z,24.07
2023-05-14T20:35:43.804Z,24.10
2023-05-14T20:38:12.840Z,24.93
2023-05-14T20:40:40.165Z,26.00
2023-05-14T20:43:07.069Z,25.60
2023-05-14T20:45:34.214Z,26.43
2023-05-14T20:48:01.443Z,26.57
2023-05-14T20:50:28.443Z,26.60
2023-05-14T20:52:55.789Z,27.60
2023-05-14T20:55:23.222Z,27.47
2023-05-14T20:57:50.603Z,25.80
2023-05-14T21:00:18.174Z,27.00
2023-05-14T21:02:45.452Z,26.07
2023-05-14T21:05:13.778Z,25.47
2023-05-14T21:07:40.979Z,27.70
2023-05-14T21:10:09.712Z,26.00
2023-05-14T21:12:36.738Z,27.10
2023-05-14T21:15:04.039Z,28.80
2023-05-14T21:17:31.115Z,28.43
2023-05-14T21:19:58.025Z,28.67
2023-05-14T21:22:25.099Z,29.30
2023-05-14T21:24:52.068Z,29.20
2023-05-14T21:27:19.498Z,27.53
2023-05-14T21:29:46.690Z,26.23
2023-05-14T21:32:13.767Z,27.00
2023-05-14T21:34:40.713Z,25.43
2023-05-14T21:37:07.763Z,27.47
2023-05-14T21:39:34.878Z,25.97
2023-05-14T21:42:01.835Z,26.00
2023-05-14T21:44:28.827Z,25.70
2023-05-14T21:46:56.030Z,24.87
2023-05-14T21:49:22.960Z,28.60
2023-05-14T21:51:53.167Z,25.83
2023-05-14T21:54:20.933Z,23.97
2023-05-14T21:56:48.066Z,26.03
2023-05-14T21:59:15.235Z,28.07
2023-05-14T22:02:04.891Z,28.47
2023-05-14T22:04:30.275Z,25.10
2023-05-14T22:06:57.152Z,26.97
2023-05-14T22:09:24.094Z,25.93
2023-05-14T22:11:51.026Z,26.90
2023-05-14T22:14:17.971Z,27.53
2023-05-14T22:16:45.058Z,26.97
2023-05-14T22:19:12.207Z,24.83
2023-05-14T22:21:39.385Z,25.67
2023-05-14T22:24:06.639Z,26.93
2023-05-14T22:26:33.687Z,29.60
2023-05-14T22:29:00.750Z,28.53
2023-05-14T22:31:27.625Z,28.67
2023-05-14T22:33:54.797Z,29.23
2023-05-14T22:36:21.774Z,29.00
2023-05-14T22:38:48.742Z,30.13
2023-05-14T22:41:17.589Z,30.37
2023-05-14T22:43:44.742Z,30.07
2023-05-14T22:46:11.694Z,31.37
2023-05-14T22:48:38.644Z,30.73
2023-05-14T22:51:05.732Z,26.27
2023-05-14T22:53:32.702Z,24.97
2023-05-14T22:55:59.702Z,25.63
2023-05-14T22:58:26.573Z,26.03
2023-05-14T23:00:53.487Z,24.53
2023-05-14T23:03:20.443Z,28.10
2023-05-14T23:05:47.353Z,30.63
2023-05-14T23:08:14.389Z,31.67
2023-05-14T23:10:41.312Z,32.60
2023-05-14T23:13:08.226Z,32.23
2023-05-14T23:15:35.240Z,34.70
2023-05-14T23:18:02.381Z,35.07
2023-05-14T23:20:29.362Z,36.00
2023-05-14T23:22:56.304Z,35.83
2023-05-14T23:25:23.473Z,37.67
2023-05-14T23:27:50.706Z,38.90
2023-05-14T23:30:17.817Z,39.80
2023-05-14T23:32:44.931Z,38.23
2023-05-14T23:35:11.925Z,38.77
2023-05-14T23:37:42.580Z,39.33
2023-05-14T23:40:10.462Z,39.53
2023-05-14T23:42:37.464Z,39.00
2023-05-14T23:45:05.273Z,40.20
2023-05-14T23:47:32.421Z,40.00
2023-05-14T23:49:59.356Z,39.10
2023-05-14T23:52:26.320Z,39.00
2023-05-14T23:54:53.565Z,37.93
2023-05-14T23:57:20.781Z,38.43
2023-05-14T23:59:47.720Z,39.33
